MSR713 HECA-OLBA
Flight info
| Callsign | MSR713 |
|---|---|
| Flight time | N/A |
| Altitude | 36000 |
| Route | CVO DCT LAGVI Q777 IMPIP N307 LAKTO N71 STEPA L78 DESPO R19 KUKLA |
| Aircraft | B738/M-SDE2E3FGHIRWXY/LB1 |
Departure
| Time | N/A |
|---|---|
| Airport | Cairo International Airport (HECA) |
Arrival
| Time | 2026-05-05 18:53 |
|---|---|
| Airport | Beirut Rafic Hariri International Airport (OLBA) |
| Time | Latitude | Longitude | Altitude | Speed | Heading |
|---|---|---|---|---|---|
| 2026-05-05 17:51 | 30.75615 | 31.51109 | 16132 ft | 333 kts | 352° |
| 2026-05-05 17:51 | 30.77974 | 31.50872 | 16522 ft | 338 kts | 346° |
| 2026-05-05 17:52 | 30.80457 | 31.50423 | 16912 ft | 344 kts | 344° |
| 2026-05-05 17:52 | 30.82836 | 31.49932 | 17306 ft | 351 kts | 344° |
| 2026-05-05 17:53 | 30.90618 | 31.48396 | 18538 ft | 373 kts | 345° |
| 2026-05-05 17:53 | 30.93211 | 31.47915 | 18935 ft | 379 kts | 345° |
| 2026-05-05 17:53 | 30.95846 | 31.47435 | 19317 ft | 384 kts | 344° |
| 2026-05-05 17:53 | 30.98507 | 31.46952 | 19712 ft | 390 kts | 345° |
| 2026-05-05 17:54 | 31.01211 | 31.46458 | 20097 ft | 394 kts | 344° |
| 2026-05-05 17:54 | 31.03946 | 31.45958 | 20490 ft | 399 kts | 344° |
| 2026-05-05 17:54 | 31.06689 | 31.45456 | 20885 ft | 402 kts | 344° |
| 2026-05-05 17:54 | 31.09495 | 31.44944 | 21282 ft | 404 kts | 344° |
| 2026-05-05 17:55 | 31.12248 | 31.44442 | 21668 ft | 406 kts | 344° |
| 2026-05-05 17:55 | 31.15085 | 31.43923 | 22065 ft | 407 kts | 344° |
| 2026-05-05 17:55 | 31.16846 | 31.43601 | 22305 ft | 407 kts | 344° |
| 2026-05-05 17:55 | 31.19648 | 31.43087 | 22700 ft | 410 kts | 344° |
| 2026-05-05 17:56 | 31.22465 | 31.42569 | 23098 ft | 412 kts | 343° |
| 2026-05-05 17:56 | 31.25323 | 31.42044 | 23510 ft | 414 kts | 343° |
| 2026-05-05 17:56 | 31.28156 | 31.41520 | 23913 ft | 416 kts | 343° |
| 2026-05-05 17:56 | 31.31045 | 31.40985 | 24323 ft | 419 kts | 343° |
| 2026-05-05 17:57 | 31.33898 | 31.40446 | 24730 ft | 421 kts | 343° |
| 2026-05-05 17:57 | 31.36834 | 31.39893 | 25152 ft | 423 kts | 343° |
| 2026-05-05 17:57 | 31.39733 | 31.39354 | 25566 ft | 425 kts | 343° |
| 2026-05-05 17:57 | 31.42646 | 31.38812 | 25974 ft | 419 kts | 343° |
| 2026-05-05 17:58 | 31.45506 | 31.38284 | 26391 ft | 418 kts | 343° |
| 2026-05-05 17:58 | 31.48409 | 31.37750 | 26816 ft | 419 kts | 343° |
| 2026-05-05 17:58 | 31.51305 | 31.37217 | 27237 ft | 420 kts | 343° |
| 2026-05-05 17:58 | 31.54191 | 31.36684 | 27653 ft | 421 kts | 343° |
| 2026-05-05 17:59 | 31.57097 | 31.36174 | 28073 ft | 424 kts | 345° |
| 2026-05-05 17:59 | 31.60035 | 31.35785 | 28492 ft | 426 kts | 346° |
| 2026-05-05 17:59 | 31.63010 | 31.35477 | 28914 ft | 427 kts | 347° |
| 2026-05-05 17:59 | 31.65969 | 31.35204 | 29333 ft | 428 kts | 347° |
| 2026-05-05 18:00 | 31.68937 | 31.34938 | 29753 ft | 428 kts | 347° |
| 2026-05-05 18:00 | 31.71877 | 31.34670 | 30170 ft | 427 kts | 347° |
| 2026-05-05 18:00 | 31.74852 | 31.34391 | 30595 ft | 426 kts | 347° |
| 2026-05-05 18:00 | 31.77796 | 31.34107 | 31016 ft | 425 kts | 347° |
| 2026-05-05 18:01 | 31.80752 | 31.33815 | 31441 ft | 423 kts | 346° |
| 2026-05-05 18:01 | 31.83653 | 31.33524 | 31860 ft | 422 kts | 347° |
| 2026-05-05 18:01 | 31.86585 | 31.33226 | 32287 ft | 420 kts | 347° |
| 2026-05-05 18:01 | 31.89487 | 31.32926 | 32712 ft | 418 kts | 347° |
| 2026-05-05 18:02 | 31.92409 | 31.32621 | 33145 ft | 415 kts | 347° |
| 2026-05-05 18:02 | 31.95256 | 31.32322 | 33567 ft | 412 kts | 346° |
| 2026-05-05 18:02 | 31.98118 | 31.32020 | 33999 ft | 409 kts | 347° |
| 2026-05-05 18:02 | 32.00946 | 31.31721 | 34356 ft | 405 kts | 346° |
| 2026-05-05 18:03 | 32.03744 | 31.31426 | 34714 ft | 401 kts | 347° |
| 2026-05-05 18:03 | 32.06473 | 31.31138 | 35060 ft | 397 kts | 346° |
| 2026-05-05 18:03 | 32.09207 | 31.30849 | 35407 ft | 392 kts | 347° |
| 2026-05-05 18:03 | 32.11964 | 31.30691 | 35755 ft | 392 kts | 352° |
| 2026-05-05 18:04 | 32.14677 | 31.30900 | 36136 ft | 395 kts | 0° |
| 2026-05-05 18:04 | 32.17395 | 31.31616 | 36212 ft | 407 kts | 8° |
| 2026-05-05 18:04 | 32.20102 | 31.32824 | 36134 ft | 419 kts | 17° |
| 2026-05-05 18:04 | 32.22654 | 31.34446 | 35925 ft | 420 kts | 24° |
| 2026-05-05 18:05 | 32.25063 | 31.36419 | 35498 ft | 425 kts | 31° |
| 2026-05-05 18:05 | 32.27326 | 31.38755 | 34906 ft | 435 kts | 37° |
| 2026-05-05 18:05 | 32.29290 | 31.41500 | 34526 ft | 441 kts | 51° |
| 2026-05-05 18:05 | 32.30795 | 31.44675 | 34508 ft | 452 kts | 59° |
| 2026-05-05 18:06 | 32.32064 | 31.48122 | 34601 ft | 458 kts | 63° |
| 2026-05-05 18:06 | 32.34348 | 31.55058 | 35166 ft | 456 kts | 63° |
| 2026-05-05 18:06 | 32.35593 | 31.58509 | 35422 ft | 454 kts | 60° |
| 2026-05-05 18:07 | 32.36968 | 31.61853 | 35677 ft | 451 kts | 57° |
| 2026-05-05 18:07 | 32.38466 | 31.65070 | 35900 ft | 450 kts | 54° |
| 2026-05-05 18:07 | 32.40098 | 31.68247 | 36052 ft | 449 kts | 52° |
| 2026-05-05 18:08 | 32.43515 | 31.74390 | 36059 ft | 450 kts | 50° |
| 2026-05-05 18:08 | 32.47086 | 31.80531 | 36055 ft | 458 kts | 50° |
| 2026-05-05 18:09 | 32.50763 | 31.86783 | 36058 ft | 468 kts | 50° |
| 2026-05-05 18:09 | 32.54524 | 31.93181 | 36053 ft | 478 kts | 50° |
| 2026-05-05 18:10 | 32.58358 | 31.99724 | 36050 ft | 488 kts | 50° |
| 2026-05-05 18:10 | 32.62238 | 32.06361 | 36052 ft | 498 kts | 50° |
| 2026-05-05 18:11 | 32.66225 | 32.13191 | 36048 ft | 506 kts | 50° |
| 2026-05-05 18:11 | 32.70221 | 32.20033 | 36051 ft | 505 kts | 50° |
| 2026-05-05 18:12 | 32.74202 | 32.26855 | 36047 ft | 505 kts | 50° |
| 2026-05-05 18:12 | 32.78213 | 32.33734 | 36052 ft | 505 kts | 50° |
| 2026-05-05 18:13 | 32.82420 | 32.40340 | 36037 ft | 501 kts | 43° |
| 2026-05-05 18:13 | 32.87168 | 32.46315 | 36047 ft | 496 kts | 39° |
| 2026-05-05 18:14 | 32.92125 | 32.51999 | 36045 ft | 495 kts | 37° |
| 2026-05-05 18:14 | 32.97150 | 32.57667 | 36046 ft | 496 kts | 37° |
| 2026-05-05 18:15 | 33.02109 | 32.63307 | 36034 ft | 496 kts | 38° |
| 2026-05-05 18:15 | 33.07065 | 32.69003 | 36046 ft | 496 kts | 38° |
| 2026-05-05 18:16 | 33.12010 | 32.74726 | 36045 ft | 497 kts | 38° |
| 2026-05-05 18:16 | 33.16982 | 32.80502 | 36029 ft | 495 kts | 38° |
| 2026-05-05 18:17 | 33.21875 | 32.86201 | 36034 ft | 496 kts | 39° |
| 2026-05-05 18:17 | 33.26850 | 32.92005 | 36026 ft | 496 kts | 39° |
| 2026-05-05 18:18 | 33.31779 | 32.97761 | 36027 ft | 496 kts | 39° |
| 2026-05-05 18:18 | 33.36695 | 33.03512 | 36022 ft | 496 kts | 39° |
| 2026-05-05 18:19 | 33.41615 | 33.09277 | 36026 ft | 497 kts | 39° |
| 2026-05-05 18:19 | 33.46558 | 33.15080 | 36029 ft | 496 kts | 39° |
| 2026-05-05 18:20 | 33.51477 | 33.20861 | 36027 ft | 496 kts | 39° |
| 2026-05-05 18:20 | 33.56394 | 33.26652 | 36030 ft | 496 kts | 39° |
| 2026-05-05 18:21 | 33.61287 | 33.32424 | 36027 ft | 497 kts | 39° |
| 2026-05-05 18:21 | 33.66238 | 33.38275 | 36026 ft | 496 kts | 39° |
| 2026-05-05 18:22 | 33.71149 | 33.44082 | 36029 ft | 496 kts | 39° |
| 2026-05-05 18:22 | 33.76063 | 33.49887 | 36031 ft | 497 kts | 39° |
| 2026-05-05 18:23 | 33.80981 | 33.55711 | 36026 ft | 496 kts | 39° |
| 2026-05-05 18:23 | 33.85872 | 33.61585 | 36029 ft | 498 kts | 40° |
| 2026-05-05 18:24 | 33.90602 | 33.67614 | 36028 ft | 498 kts | 42° |
| 2026-05-05 18:24 | 33.95314 | 33.73752 | 36030 ft | 499 kts | 42° |
| 2026-05-05 18:25 | 34.00052 | 33.79922 | 36029 ft | 500 kts | 42° |
| 2026-05-05 18:25 | 34.04760 | 33.86031 | 36027 ft | 499 kts | 42° |
| 2026-05-05 18:26 | 34.09504 | 33.92170 | 36025 ft | 499 kts | 42° |
| 2026-05-05 18:26 | 34.14242 | 33.98300 | 36023 ft | 499 kts | 42° |
| 2026-05-05 18:26 | 34.16598 | 34.01349 | 35660 ft | 501 kts | 42° |
| 2026-05-05 18:27 | 34.18938 | 34.04385 | 35150 ft | 489 kts | 42° |
| 2026-05-05 18:27 | 34.21218 | 34.07353 | 34664 ft | 477 kts | 42° |
| 2026-05-05 18:27 | 34.23460 | 34.10273 | 34138 ft | 467 kts | 42° |
| 2026-05-05 18:27 | 34.25628 | 34.13098 | 33568 ft | 458 kts | 42° |
| 2026-05-05 18:28 | 34.29873 | 34.18626 | 32415 ft | 441 kts | 42° |
| 2026-05-05 18:28 | 34.31931 | 34.21307 | 31836 ft | 434 kts | 42° |
| 2026-05-05 18:28 | 34.33969 | 34.23963 | 31251 ft | 426 kts | 42° |
| 2026-05-05 18:29 | 34.35956 | 34.26552 | 30707 ft | 423 kts | 42° |
| 2026-05-05 18:29 | 34.37944 | 34.29203 | 30048 ft | 427 kts | 45° |
| 2026-05-05 18:29 | 34.39713 | 34.32105 | 29349 ft | 432 kts | 54° |
| 2026-05-05 18:29 | 34.41082 | 34.35358 | 28660 ft | 438 kts | 65° |
| 2026-05-05 18:30 | 34.41981 | 34.38852 | 27981 ft | 442 kts | 76° |
| 2026-05-05 18:30 | 34.42395 | 34.42567 | 27294 ft | 445 kts | 86° |
| 2026-05-05 18:30 | 34.42295 | 34.46275 | 26618 ft | 446 kts | 96° |
| 2026-05-05 18:30 | 34.41681 | 34.49957 | 25939 ft | 446 kts | 107° |
| 2026-05-05 18:31 | 34.40587 | 34.53426 | 25278 ft | 445 kts | 117° |
| 2026-05-05 18:31 | 34.39030 | 34.56638 | 24620 ft | 448 kts | 128° |
| 2026-05-05 18:31 | 34.36984 | 34.59608 | 23959 ft | 462 kts | 136° |
| 2026-05-05 18:31 | 34.34658 | 34.62321 | 23280 ft | 457 kts | 142° |
| 2026-05-05 18:32 | 34.32161 | 34.64649 | 22610 ft | 450 kts | 148° |
| 2026-05-05 18:32 | 34.29631 | 34.66818 | 21993 ft | 444 kts | 147° |
| 2026-05-05 18:32 | 34.27264 | 34.69235 | 21340 ft | 445 kts | 138° |
| 2026-05-05 18:32 | 34.25242 | 34.72045 | 20700 ft | 445 kts | 127° |
| 2026-05-05 18:33 | 34.23623 | 34.75233 | 20057 ft | 444 kts | 117° |
| 2026-05-05 18:33 | 34.22446 | 34.78666 | 19421 ft | 441 kts | 108° |
| 2026-05-05 18:33 | 34.21561 | 34.82230 | 18786 ft | 438 kts | 103° |
| 2026-05-05 18:33 | 34.20837 | 34.85753 | 18165 ft | 436 kts | 102° |
| 2026-05-05 18:34 | 34.20142 | 34.89322 | 17548 ft | 433 kts | 102° |
| 2026-05-05 18:34 | 34.19417 | 34.92855 | 16939 ft | 430 kts | 103° |
| 2026-05-05 18:34 | 34.18647 | 34.96302 | 16339 ft | 427 kts | 104° |
| 2026-05-05 18:34 | 34.17813 | 34.99768 | 15720 ft | 424 kts | 104° |
| 2026-05-05 18:35 | 34.16962 | 35.03128 | 15108 ft | 421 kts | 105° |
| 2026-05-05 18:35 | 34.16080 | 35.06510 | 14495 ft | 417 kts | 105° |
| 2026-05-05 18:35 | 34.15211 | 35.09793 | 13897 ft | 413 kts | 105° |
| 2026-05-05 18:35 | 34.14340 | 35.13065 | 13255 ft | 408 kts | 105° |
| 2026-05-05 18:36 | 34.13486 | 35.16270 | 12579 ft | 392 kts | 105° |
| 2026-05-05 18:36 | 34.12671 | 35.19326 | 11977 ft | 377 kts | 105° |
| 2026-05-05 18:36 | 34.11889 | 35.22268 | 11357 ft | 363 kts | 105° |
| 2026-05-05 18:36 | 34.11126 | 35.25145 | 10724 ft | 352 kts | 105° |
| 2026-05-05 18:37 | 34.10395 | 35.27905 | 10107 ft | 342 kts | 105° |
| 2026-05-05 18:37 | 34.09689 | 35.30580 | 9491 ft | 334 kts | 106° |
| 2026-05-05 18:37 | 34.08928 | 35.33208 | 8877 ft | 329 kts | 113° |
| 2026-05-05 18:37 | 34.07638 | 35.35435 | 8380 ft | 323 kts | 140° |
| 2026-05-05 18:38 | 34.05735 | 35.36686 | 8055 ft | 305 kts | 167° |
| 2026-05-05 18:38 | 34.03670 | 35.36843 | 7755 ft | 287 kts | 190° |
| 2026-05-05 18:38 | 34.01801 | 35.36226 | 7511 ft | 270 kts | 204° |
| 2026-05-05 18:38 | 34.00193 | 35.35180 | 7255 ft | 254 kts | 222° |
| 2026-05-05 18:39 | 33.99091 | 35.33611 | 6928 ft | 244 kts | 244° |
| 2026-05-05 18:39 | 33.98490 | 35.31739 | 6503 ft | 240 kts | 257° |
| 2026-05-05 18:39 | 33.98238 | 35.29777 | 6145 ft | 234 kts | 270° |
| 2026-05-05 18:39 | 33.98480 | 35.27858 | 5656 ft | 234 kts | 289° |
| 2026-05-05 18:40 | 33.99017 | 35.25993 | 5206 ft | 234 kts | 289° |
| 2026-05-05 18:40 | 33.99520 | 35.24152 | 4767 ft | 233 kts | 287° |
| 2026-05-05 18:40 | 34.00001 | 35.22285 | 4349 ft | 232 kts | 287° |
| 2026-05-05 18:40 | 34.00470 | 35.20444 | 3973 ft | 230 kts | 287° |
| 2026-05-05 18:41 | 34.00935 | 35.18629 | 3714 ft | 228 kts | 287° |
| 2026-05-05 18:41 | 34.01409 | 35.16793 | 3435 ft | 227 kts | 287° |
| 2026-05-05 18:41 | 34.01994 | 35.15015 | 3149 ft | 227 kts | 299° |
| 2026-05-05 18:41 | 34.02978 | 35.13547 | 2872 ft | 227 kts | 319° |
| 2026-05-05 18:42 | 34.04315 | 35.12544 | 2594 ft | 228 kts | 336° |
| 2026-05-05 18:42 | 34.05823 | 35.12058 | 2442 ft | 222 kts | 353° |
| 2026-05-05 18:42 | 34.07331 | 35.12160 | 2370 ft | 212 kts | 12° |
| 2026-05-05 18:42 | 34.08676 | 35.12812 | 2178 ft | 208 kts | 29° |
| 2026-05-05 18:43 | 34.09855 | 35.13859 | 1957 ft | 207 kts | 41° |
| 2026-05-05 18:43 | 34.10813 | 35.15113 | 1952 ft | 198 kts | 53° |
| 2026-05-05 18:43 | 34.11482 | 35.16515 | 1959 ft | 191 kts | 66° |
| 2026-05-05 18:43 | 34.11906 | 35.18044 | 1958 ft | 193 kts | 76° |
| 2026-05-05 18:44 | 34.12122 | 35.19636 | 1958 ft | 191 kts | 86° |
| 2026-05-05 18:44 | 34.12087 | 35.21240 | 1959 ft | 191 kts | 98° |
| 2026-05-05 18:44 | 34.11781 | 35.22796 | 1962 ft | 190 kts | 110° |
| 2026-05-05 18:44 | 34.11333 | 35.24288 | 1963 ft | 191 kts | 109° |
| 2026-05-05 18:45 | 34.10922 | 35.25812 | 1966 ft | 191 kts | 107° |
| 2026-05-05 18:45 | 34.10531 | 35.27348 | 1965 ft | 190 kts | 107° |
| 2026-05-05 18:45 | 34.10141 | 35.28869 | 1965 ft | 190 kts | 107° |
| 2026-05-05 18:45 | 34.09746 | 35.30394 | 1965 ft | 191 kts | 107° |
| 2026-05-05 18:46 | 34.09351 | 35.31921 | 1967 ft | 191 kts | 107° |
| 2026-05-05 18:46 | 34.08950 | 35.33448 | 1968 ft | 192 kts | 108° |
| 2026-05-05 18:46 | 34.08543 | 35.34980 | 1968 ft | 192 kts | 107° |
| 2026-05-05 18:46 | 34.08131 | 35.36534 | 1970 ft | 192 kts | 107° |
| 2026-05-05 18:47 | 34.07724 | 35.38066 | 1968 ft | 191 kts | 107° |
| 2026-05-05 18:47 | 34.07316 | 35.39592 | 1968 ft | 191 kts | 107° |
| 2026-05-05 18:47 | 34.06906 | 35.41133 | 1969 ft | 190 kts | 107° |
| 2026-05-05 18:47 | 34.06496 | 35.42654 | 1973 ft | 192 kts | 108° |
| 2026-05-05 18:48 | 34.05807 | 35.44018 | 1951 ft | 191 kts | 138° |
| 2026-05-05 18:48 | 34.04656 | 35.44788 | 1932 ft | 190 kts | 167° |
| 2026-05-05 18:48 | 34.03370 | 35.44904 | 1950 ft | 185 kts | 183° |
| 2026-05-05 18:48 | 34.02067 | 35.44775 | 2080 ft | 188 kts | 187° |
| 2026-05-05 18:49 | 34.00777 | 35.44548 | 2026 ft | 187 kts | 191° |
| 2026-05-05 18:49 | 33.99480 | 35.44275 | 1874 ft | 186 kts | 191° |
| 2026-05-05 18:49 | 33.98238 | 35.44078 | 1823 ft | 173 kts | 184° |
| 2026-05-05 18:49 | 33.97051 | 35.44137 | 1633 ft | 170 kts | 172° |
| 2026-05-05 18:50 | 33.95898 | 35.44456 | 1444 ft | 167 kts | 164° |
| 2026-05-05 18:50 | 33.94795 | 35.44855 | 1248 ft | 164 kts | 165° |
| 2026-05-05 18:50 | 33.93689 | 35.45219 | 1083 ft | 158 kts | 167° |
| 2026-05-05 18:50 | 33.92639 | 35.45525 | 1245 ft | 151 kts | 168° |
| 2026-05-05 18:51 | 33.91627 | 35.45789 | 1471 ft | 150 kts | 169° |
| 2026-05-05 18:51 | 33.90611 | 35.46063 | 1404 ft | 146 kts | 168° |
| 2026-05-05 18:51 | 33.89625 | 35.46337 | 1271 ft | 140 kts | 168° |
| 2026-05-05 18:51 | 33.88668 | 35.46606 | 1108 ft | 141 kts | 168° |
| 2026-05-05 18:52 | 33.87714 | 35.46877 | 883 ft | 140 kts | 168° |
| 2026-05-05 18:52 | 33.86772 | 35.47148 | 689 ft | 138 kts | 167° |
| 2026-05-05 18:52 | 33.85829 | 35.47414 | 490 ft | 138 kts | 169° |
| 2026-05-05 18:52 | 33.84880 | 35.47654 | 236 ft | 138 kts | 169° |
| 2026-05-05 18:53 | 33.83950 | 35.47907 | 55 ft | 137 kts | 168° |
| 2026-05-05 18:53 | 33.83085 | 35.48143 | 23 ft | 104 kts | 167° |
| 2026-05-05 18:53 | 33.82646 | 35.48265 | 26 ft | 38 kts | 166° |
| 2026-05-05 18:53 | 33.82470 | 35.48372 | 28 ft | 18 kts | 144° |
| 2026-05-05 18:54 | 33.82377 | 35.48469 | 30 ft | 16 kts | 136° |
| 2026-05-05 18:54 | 33.82304 | 35.48550 | 31 ft | 7 kts | 137° |
| 2026-05-05 18:54 | 33.82265 | 35.48593 | 31 ft | 7 kts | 132° |
| 2026-05-05 18:54 | 33.82241 | 35.48644 | 31 ft | 6 kts | 105° |
| 2026-05-05 18:55 | 33.82238 | 35.48708 | 33 ft | 8 kts | 87° |
| 2026-05-05 18:55 | 33.82241 | 35.48786 | 34 ft | 10 kts | 86° |
| 2026-05-05 18:55 | 33.82245 | 35.48888 | 34 ft | 12 kts | 87° |
| 2026-05-05 18:55 | 33.82249 | 35.48976 | 35 ft | 10 kts | 87° |
| 2026-05-05 18:56 | 33.82247 | 35.49034 | 36 ft | 5 kts | 94° |
| 2026-05-05 18:56 | 33.82243 | 35.49087 | 37 ft | 7 kts | 98° |
| 2026-05-05 18:56 | 33.82232 | 35.49157 | 38 ft | 9 kts | 96° |
| 2026-05-05 18:56 | 33.82265 | 35.49226 | 40 ft | 10 kts | 27° |
| 2026-05-05 18:57 | 33.82309 | 35.49248 | 42 ft | 4 kts | 39° |
| 2026-05-05 18:57 | 33.82318 | 35.49272 | 44 ft | 2 kts | 87° |
| 2026-05-05 18:57 | 33.82314 | 35.49290 | 44 ft | 1 kts | 111° |
| 2026-05-05 18:57 | 33.82312 | 35.49297 | 44 ft | 0 kts | 113° |
| 2026-05-05 18:58 | 33.82309 | 35.49303 | 44 ft | 1 kts | 115° |
| 2026-05-05 18:58 | 33.82309 | 35.49305 | 44 ft | 0 kts | 114° |
| 2026-05-05 18:58 | 33.82308 | 35.49307 | 45 ft | 0 kts | 114° |
| 2026-05-05 18:58 | 33.82307 | 35.49309 | 45 ft | 0 kts | 113° |